Time;durP1;ratioP1;P1;durP2;ratioP2;P2;SDS_P1;SDS_P2;PMS_P1;PMS_P2;Temp;Humidity;BMP_temperature;BMP_pressure;BME280_temperature;BME280_humidity;BME280_pressure;Samples;Min_cycle;Max_cycle;Signal;HPM_P1;HPM_P2
2022/10/26 00:01:24;;;;;;;6.60;4.80;;;;;;;;;;105486;1296;22737;-33
2022/10/26 00:03:58;;;;;;;6.80;5.00;;;;;;;;;;105491;1297;22720;-33
2022/10/26 00:06:30;;;;;;;7.00;5.10;;;;;;;;;;105484;1298;22511;-33
2022/10/26 00:09:02;;;;;;;5.80;4.50;;;;;;;;;;105495;1300;22467;-33
2022/10/26 00:11:34;;;;;;;6.20;4.70;;;;;;;;;;105511;1280;22461;-33
2022/10/26 00:14:06;;;;;;;6.40;4.90;;;;;;;;;;105516;1284;24235;-33
2022/10/26 00:16:38;;;;;;;6.20;4.30;;;;;;;;;;105491;1291;22438;-33
2022/10/26 00:19:10;;;;;;;5.70;4.30;;;;;;;;;;105441;1289;22872;-33
2022/10/26 00:21:43;;;;;;;6.70;4.80;;;;;;;;;;105499;1291;22421;-33
2022/10/26 00:24:15;;;;;;;6.50;4.70;;;;;;;;;;105482;1303;22465;-33
2022/10/26 00:26:48;;;;;;;6.70;4.60;;;;;;;;;;105509;1296;22565;-33
2022/10/26 00:29:20;;;;;;;6.00;5.10;;;;;;;;;;105477;1297;25479;-33
2022/10/26 00:31:52;;;;;;;6.10;4.70;;;;;;;;;;105497;1288;22524;-33
2022/10/26 00:34:25;;;;;;;7.20;5.20;;;;;;;;;;105520;1287;22482;-33
2022/10/26 00:36:57;;;;;;;5.70;4.30;;;;;;;;;;105499;1298;24281;-33
2022/10/26 00:39:29;;;;;;;6.40;4.90;;;;;;;;;;105472;1293;25200;-33
2022/10/26 00:42:01;;;;;;;6.40;4.50;;;;;;;;;;105503;1294;22586;-33
2022/10/26 00:45:06;;;;;;;6.50;4.80;;;;;;;;;;105482;1296;22490;-33
2022/10/26 00:47:42;;;;;;;6.20;4.80;;;;;;;;;;105507;1298;22650;-33
2022/10/26 00:50:19;;;;;;;6.30;4.60;;;;;;;;;;105514;1301;22476;-33
2022/10/26 00:52:53;;;;;;;6.30;4.60;;;;;;;;;;105493;1288;22513;-33
2022/10/26 00:55:31;;;;;;;6.30;4.70;;;;;;;;;;105501;1294;23763;-33
2022/10/26 00:58:05;;;;;;;6.10;4.60;;;;;;;;;;105462;1304;22479;-34
2022/10/26 01:00:38;;;;;;;6.30;4.60;;;;;;;;;;105465;1297;22465;-33
2022/10/26 01:03:11;;;;;;;6.60;4.60;;;;;;;;;;105492;1290;22604;-33
2022/10/26 01:05:46;;;;;;;6.40;4.40;;;;;;;;;;105478;1304;22486;-33
2022/10/26 01:08:19;;;;;;;6.80;4.70;;;;;;;;;;105444;1288;22491;-31
2022/10/26 01:10:52;;;;;;;5.70;4.50;;;;;;;;;;105471;1298;22486;-30
2022/10/26 01:13:24;;;;;;;6.20;4.80;;;;;;;;;;105462;1298;25333;-31
2022/10/26 01:16:12;;;;;;;6.80;4.90;;;;;;;;;;105483;1288;22614;-30
2022/10/26 01:18:57;;;;;;;6.20;4.60;;;;;;;;;;105458;1294;22484;-30
2022/10/26 01:21:55;;;;;;;6.40;4.50;;;;;;;;;;105480;1298;25269;-31
2022/10/26 01:24:46;;;;;;;6.60;4.90;;;;;;;;;;105454;1295;22464;-30
2022/10/26 01:27:28;;;;;;;6.30;4.60;;;;;;;;;;105477;1295;22465;-30
2022/10/26 01:30:29;;;;;;;6.90;4.80;;;;;;;;;;105434;1289;22484;-30
2022/10/26 01:33:25;;;;;;;5.80;4.60;;;;;;;;;;105495;1296;25239;-30
2022/10/26 01:36:09;;;;;;;5.80;4.50;;;;;;;;;;105465;1297;22487;-30
2022/10/26 01:38:51;;;;;;;5.80;4.50;;;;;;;;;;105450;1277;22595;-30
2022/10/26 01:41:29;;;;;;;6.30;5.00;;;;;;;;;;105477;1281;22455;-30
2022/10/26 01:44:06;;;;;;;6.60;4.60;;;;;;;;;;105494;1295;22496;-31
2022/10/26 01:46:42;;;;;;;6.70;4.90;;;;;;;;;;105475;1303;22482;-30
2022/10/26 01:49:18;;;;;;;6.30;4.60;;;;;;;;;;105485;1275;22801;-30
2022/10/26 01:51:51;;;;;;;6.30;4.90;;;;;;;;;;105475;1304;22492;-30
2022/10/26 01:54:22;;;;;;;;;;;;;;;;;;105476;1296;22502;-30
2022/10/26 01:57:00;;;;;;;7.20;4.90;;;;;;;;;;105467;1289;22563;-30
2022/10/26 02:00:04;;;;;;;6.00;4.90;;;;;;;;;;105445;1296;22485;-30
2022/10/26 02:03:03;;;;;;;6.20;4.80;;;;;;;;;;105488;1291;22520;-30
2022/10/26 02:06:05;;;;;;;6.20;4.60;;;;;;;;;;105485;1294;22521;-31
2022/10/26 02:08:58;;;;;;;6.50;5.00;;;;;;;;;;105483;1297;23786;-30
2022/10/26 02:11:39;;;;;;;6.00;4.50;;;;;;;;;;105458;1285;22495;-31
2022/10/26 02:14:22;;;;;;;6.90;5.00;;;;;;;;;;105472;1294;22501;-30
2022/10/26 02:16:58;;;;;;;5.70;4.60;;;;;;;;;;105497;1295;22944;-31
2022/10/26 02:19:40;;;;;;;6.70;4.90;;;;;;;;;;105482;1299;22974;-30
2022/10/26 02:22:21;;;;;;;5.70;4.60;;;;;;;;;;105455;1303;22485;-30
2022/10/26 02:24:55;;;;;;;5.60;4.50;;;;;;;;;;105525;1288;22472;-30
2022/10/26 02:27:33;;;;;;;7.40;5.30;;;;;;;;;;105529;1296;24320;-30
2022/10/26 02:30:12;;;;;;;6.40;4.70;;;;;;;;;;105499;1302;22523;-30
2022/10/26 02:32:50;;;;;;;5.90;4.80;;;;;;;;;;105516;1303;22472;-30
2022/10/26 02:35:28;;;;;;;6.20;4.60;;;;;;;;;;105485;1301;22473;-30
2022/10/26 02:38:04;;;;;;;6.40;5.10;;;;;;;;;;105475;1298;22492;-30
2022/10/26 02:40:37;;;;;;;6.20;5.00;;;;;;;;;;105440;1303;22419;-30
2022/10/26 02:43:19;;;;;;;7.20;4.90;;;;;;;;;;105537;1290;22520;-30
2022/10/26 02:45:56;;;;;;;7.20;5.20;;;;;;;;;;105501;1304;22930;-30
2022/10/26 02:48:31;;;;;;;6.00;4.70;;;;;;;;;;105481;1303;22479;-30
2022/10/26 02:51:11;;;;;;;6.00;4.70;;;;;;;;;;105453;1303;22506;-30
2022/10/26 02:53:51;;;;;;;5.90;5.00;;;;;;;;;;105459;1297;22686;-30
2022/10/26 02:56:31;;;;;;;6.10;4.60;;;;;;;;;;105471;1281;24222;-30
2022/10/26 02:59:06;;;;;;;6.80;5.30;;;;;;;;;;105487;1281;25380;-30
2022/10/26 03:01:39;;;;;;;6.10;4.80;;;;;;;;;;105452;1281;23747;-30
2022/10/26 03:04:12;;;;;;;6.10;4.80;;;;;;;;;;105515;1304;22475;-30
2022/10/26 03:06:46;;;;;;;7.60;5.10;;;;;;;;;;105535;1290;22501;-30
2022/10/26 03:09:18;;;;;;;6.70;5.00;;;;;;;;;;105515;1301;22530;-30
2022/10/26 03:11:50;;;;;;;7.30;5.40;;;;;;;;;;105478;1304;22495;-30
2022/10/26 03:14:23;;;;;;;6.10;5.00;;;;;;;;;;105465;1300;22635;-30
2022/10/26 03:16:55;;;;;;;6.80;5.30;;;;;;;;;;105464;1306;22447;-30
2022/10/26 03:19:27;;;;;;;6.50;5.00;;;;;;;;;;105464;1297;22649;-31
2022/10/26 03:21:59;;;;;;;7.40;5.70;;;;;;;;;;105445;1294;22492;-30
2022/10/26 03:24:31;;;;;;;6.20;5.10;;;;;;;;;;105493;1295;22488;-31
2022/10/26 03:27:03;;;;;;;6.70;5.00;;;;;;;;;;105497;1294;22608;-30
2022/10/26 03:29:35;;;;;;;7.00;5.10;;;;;;;;;;105524;1291;22510;-30
2022/10/26 03:32:08;;;;;;;6.60;5.30;;;;;;;;;;105480;1294;22508;-31
2022/10/26 03:34:40;;;;;;;6.80;5.30;;;;;;;;;;105478;1296;25819;-30
2022/10/26 03:37:12;;;;;;;6.90;5.50;;;;;;;;;;105498;1296;22521;-31
2022/10/26 03:39:44;;;;;;;7.00;5.50;;;;;;;;;;105464;1292;22937;-31
2022/10/26 03:42:16;;;;;;;6.60;5.30;;;;;;;;;;105468;1287;25292;-30
2022/10/26 03:44:48;;;;;;;6.20;5.30;;;;;;;;;;105492;1297;22490;-30
2022/10/26 03:47:21;;;;;;;7.00;5.40;;;;;;;;;;105506;1294;22655;-30
2022/10/26 03:49:53;;;;;;;7.60;5.90;;;;;;;;;;105509;1287;22492;-31
2022/10/26 03:52:25;;;;;;;6.90;5.40;;;;;;;;;;105457;1302;22482;-30
2022/10/26 03:54:57;;;;;;;7.00;5.30;;;;;;;;;;105497;1303;22468;-30
2022/10/26 03:57:29;;;;;;;6.50;5.30;;;;;;;;;;105496;1275;22485;-30
2022/10/26 04:00:02;;;;;;;7.10;5.30;;;;;;;;;;105479;1298;22523;-30
2022/10/26 04:02:34;;;;;;;6.80;5.60;;;;;;;;;;105456;1297;22463;-30
2022/10/26 04:05:10;;;;;;;6.70;5.60;;;;;;;;;;105494;1297;22500;-30
2022/10/26 04:07:42;;;;;;;7.00;5.60;;;;;;;;;;105480;1303;25258;-30
2022/10/26 04:10:16;;;;;;;7.10;5.90;;;;;;;;;;105463;1297;22514;-31
2022/10/26 04:12:48;;;;;;;6.90;5.60;;;;;;;;;;105441;1297;23978;-30
2022/10/26 04:15:25;;;;;;;7.60;6.00;;;;;;;;;;105479;1303;22461;-30
2022/10/26 04:18:02;;;;;;;7.50;5.80;;;;;;;;;;105476;1287;25905;-31
2022/10/26 04:20:37;;;;;;;7.90;6.20;;;;;;;;;;105491;1296;23784;-30
2022/10/26 04:23:12;;;;;;;7.30;5.80;;;;;;;;;;105429;1303;22490;-30
2022/10/26 04:25:45;;;;;;;7.50;6.40;;;;;;;;;;105480;1289;22517;-31
2022/10/26 04:28:17;;;;;;;7.30;6.00;;;;;;;;;;105460;1294;22481;-30
2022/10/26 04:30:50;;;;;;;7.20;6.20;;;;;;;;;;105449;1304;22649;-30
2022/10/26 04:33:23;;;;;;;7.40;6.00;;;;;;;;;;105435;1298;22482;-30
2022/10/26 04:36:03;;;;;;;7.00;5.80;;;;;;;;;;105500;1288;22521;-30
2022/10/26 04:38:37;;;;;;;12.00;6.90;;;;;;;;;;105492;1288;22709;-30
2022/10/26 04:41:10;;;;;;;7.30;6.60;;;;;;;;;;105444;1299;22744;-30
2022/10/26 04:43:42;;;;;;;7.40;6.20;;;;;;;;;;105388;1296;22420;-30
2022/10/26 04:46:15;;;;;;;7.90;6.40;;;;;;;;;;105474;1277;22435;-30
2022/10/26 04:48:48;;;;;;;8.20;6.40;;;;;;;;;;105497;1291;24235;-30
2022/10/26 04:51:22;;;;;;;7.10;6.10;;;;;;;;;;105464;1290;22997;-30
2022/10/26 04:53:57;;;;;;;8.00;6.30;;;;;;;;;;105435;1292;22517;-30
2022/10/26 04:56:29;;;;;;;8.00;6.40;;;;;;;;;;105467;1288;25360;-30
2022/10/26 04:59:01;;;;;;;7.50;6.50;;;;;;;;;;105499;1301;22496;-30
2022/10/26 05:01:34;;;;;;;7.10;6.40;;;;;;;;;;105475;1289;22472;-30
2022/10/26 05:04:06;;;;;;;7.90;6.40;;;;;;;;;;105414;1285;22605;-30
2022/10/26 05:06:41;;;;;;;7.50;6.20;;;;;;;;;;105462;1295;23764;-30
2022/10/26 05:09:13;;;;;;;7.50;6.40;;;;;;;;;;105464;1292;23863;-30
2022/10/26 05:11:45;;;;;;;8.10;6.50;;;;;;;;;;105488;1285;22498;-30
2022/10/26 05:14:17;;;;;;;8.30;6.50;;;;;;;;;;105445;1300;22494;-30
2022/10/26 05:16:54;;;;;;;7.90;6.30;;;;;;;;;;105511;1295;25156;-30
2022/10/26 05:19:26;;;;;;;7.60;6.40;;;;;;;;;;105472;1304;22486;-31
2022/10/26 05:21:58;;;;;;;7.80;6.80;;;;;;;;;;105527;1298;24227;-31
2022/10/26 05:24:30;;;;;;;7.50;6.40;;;;;;;;;;105449;1295;22495;-30
2022/10/26 05:27:02;;;;;;;7.60;6.60;;;;;;;;;;105471;1298;22466;-31
2022/10/26 05:29:34;;;;;;;7.90;6.90;;;;;;;;;;105456;1303;24643;-31
2022/10/26 05:32:06;;;;;;;7.20;6.30;;;;;;;;;;105492;1292;22621;-31
2022/10/26 05:34:39;;;;;;;8.10;6.50;;;;;;;;;;105440;1282;22785;-31
2022/10/26 05:37:11;;;;;;;8.00;6.30;;;;;;;;;;105462;1281;22485;-31
2022/10/26 05:39:43;;;;;;;7.10;6.20;;;;;;;;;;105465;1283;22525;-31
2022/10/26 05:42:15;;;;;;;7.40;6.50;;;;;;;;;;105508;1297;22483;-31
2022/10/26 05:44:47;;;;;;;7.20;6.40;;;;;;;;;;105416;1297;22475;-31
2022/10/26 05:47:19;;;;;;;8.10;6.90;;;;;;;;;;105471;1289;22478;-31
2022/10/26 05:49:51;;;;;;;8.10;6.90;;;;;;;;;;105438;1304;22494;-31
2022/10/26 05:52:23;;;;;;;7.70;6.90;;;;;;;;;;105341;1304;22746;-31
2022/10/26 05:54:55;;;;;;;8.00;7.00;;;;;;;;;;105425;1287;23952;-31
2022/10/26 05:57:29;;;;;;;7.60;6.50;;;;;;;;;;105476;1294;22528;-31
2022/10/26 06:00:03;;;;;;;7.70;6.20;;;;;;;;;;105494;1294;22478;-31
2022/10/26 06:02:43;;;;;;;7.40;6.20;;;;;;;;;;105483;1302;25384;-31
2022/10/26 06:05:22;;;;;;;7.40;6.60;;;;;;;;;;105435;1281;22459;-31
2022/10/26 06:07:57;;;;;;;7.30;6.10;;;;;;;;;;105464;1288;22485;-31
2022/10/26 06:10:31;;;;;;;7.50;6.70;;;;;;;;;;105484;1304;22506;-31
2022/10/26 06:13:09;;;;;;;7.20;6.30;;;;;;;;;;105489;1302;22545;-31
2022/10/26 06:15:55;;;;;;;7.70;6.40;;;;;;;;;;105462;1295;23794;-31
2022/10/26 06:18:39;;;;;;;7.70;6.60;;;;;;;;;;105498;1281;22609;-31
2022/10/26 06:21:29;;;;;;;7.30;6.20;;;;;;;;;;105540;1291;22498;-31
2022/10/26 06:24:12;;;;;;;8.30;6.50;;;;;;;;;;105508;1292;22469;-31
2022/10/26 06:26:54;;;;;;;7.80;6.30;;;;;;;;;;105446;1298;22465;-31
2022/10/26 06:29:41;;;;;;;8.00;6.80;;;;;;;;;;105500;1290;22856;-31
2022/10/26 06:32:13;;;;;;;7.90;6.30;;;;;;;;;;105390;1305;22673;-31
2022/10/26 06:34:49;;;;;;;8.60;6.30;;;;;;;;;;105452;1297;22552;-31
2022/10/26 06:37:22;;;;;;;8.20;6.50;;;;;;;;;;105618;1299;22483;-31
2022/10/26 06:40:02;;;;;;;8.00;6.30;;;;;;;;;;105327;1290;218015;-31
2022/10/26 06:42:35;;;;;;;7.80;6.40;;;;;;;;;;105482;1285;22488;-31
2022/10/26 06:45:14;;;;;;;7.40;6.20;;;;;;;;;;105474;1291;22462;-31
2022/10/26 06:47:54;;;;;;;9.40;7.00;;;;;;;;;;105594;1287;22493;-31
2022/10/26 06:50:38;;;;;;;8.70;6.40;;;;;;;;;;105468;1301;25344;-31
2022/10/26 06:53:21;;;;;;;8.20;6.60;;;;;;;;;;105490;1297;22580;-31
2022/10/26 06:55:57;;;;;;;8.20;6.80;;;;;;;;;;105470;1298;22611;-31
2022/10/26 06:58:35;;;;;;;8.80;6.90;;;;;;;;;;105491;1291;25345;-31
2022/10/26 07:01:12;;;;;;;9.20;7.20;;;;;;;;;;105463;1283;22750;-31
2022/10/26 07:03:44;;;;;;;8.80;6.90;;;;;;;;;;105500;1297;22480;-31
2022/10/26 07:06:18;;;;;;;7.70;6.40;;;;;;;;;;105446;1292;25242;-31
2022/10/26 07:08:50;;;;;;;8.10;6.40;;;;;;;;;;105472;1289;25382;-31
2022/10/26 07:11:22;;;;;;;8.10;6.50;;;;;;;;;;105502;1295;22478;-31
2022/10/26 07:13:55;;;;;;;10.40;6.80;;;;;;;;;;105440;1291;22545;-31
2022/10/26 07:16:27;;;;;;;8.60;6.80;;;;;;;;;;105457;1292;23074;-31
2022/10/26 07:18:59;;;;;;;8.80;6.30;;;;;;;;;;105485;1291;24231;-31
2022/10/26 07:21:34;;;;;;;9.50;6.40;;;;;;;;;;105615;1273;25224;-32
2022/10/26 07:24:08;;;;;;;8.70;6.60;;;;;;;;;;105438;1299;25241;-32
2022/10/26 07:26:46;;;;;;;7.90;6.20;;;;;;;;;;105261;1291;22478;-33
2022/10/26 07:29:22;;;;;;;9.40;6.40;;;;;;;;;;105341;1298;22442;-33
2022/10/26 07:31:54;;;;;;;10.00;6.80;;;;;;;;;;105299;1291;22538;-33
2022/10/26 07:34:26;;;;;;;9.20;6.70;;;;;;;;;;105352;1297;22491;-33
2022/10/26 07:37:01;;;;;;;9.80;6.60;;;;;;;;;;105254;1292;24917;-33
2022/10/26 07:39:34;;;;;;;9.80;6.90;;;;;;;;;;105322;1288;22481;-33
2022/10/26 07:42:08;;;;;;;7.90;6.30;;;;;;;;;;105332;1300;23764;-35
2022/10/26 07:44:40;;;;;;;8.80;6.20;;;;;;;;;;105354;1295;23876;-33
2022/10/26 07:47:12;;;;;;;8.50;6.60;;;;;;;;;;105259;1292;22493;-33
2022/10/26 07:49:44;;;;;;;8.60;6.70;;;;;;;;;;105346;1300;22498;-34
2022/10/26 07:52:16;;;;;;;7.70;6.30;;;;;;;;;;105338;1300;22492;-33
2022/10/26 07:54:48;;;;;;;8.00;6.70;;;;;;;;;;105322;1299;22535;-33
2022/10/26 07:57:20;;;;;;;8.90;6.30;;;;;;;;;;105244;1295;23724;-33
2022/10/26 07:59:54;;;;;;;9.30;6.70;;;;;;;;;;105334;1301;25205;-33
2022/10/26 08:02:26;;;;;;;8.30;6.30;;;;;;;;;;105327;1290;22487;-32
2022/10/26 08:04:58;;;;;;;9.60;6.60;;;;;;;;;;105352;1295;25247;-34
2022/10/26 08:07:31;;;;;;;8.70;5.60;;;;;;;;;;105261;1295;25125;-33
2022/10/26 08:10:03;;;;;;;8.90;6.70;;;;;;;;;;105300;1300;22492;-33
2022/10/26 08:12:35;;;;;;;8.90;6.30;;;;;;;;;;105354;1297;22472;-33
2022/10/26 08:15:13;;;;;;;8.10;6.20;;;;;;;;;;105342;1304;22491;-32
2022/10/26 08:17:45;;;;;;;9.40;6.20;;;;;;;;;;105212;1308;25275;-33
2022/10/26 08:20:17;;;;;;;7.90;6.10;;;;;;;;;;105357;1299;22521;-33
2022/10/26 08:22:50;;;;;;;9.10;6.60;;;;;;;;;;105346;1297;22623;-32
2022/10/26 08:25:21;;;;;;;8.40;5.60;;;;;;;;;;105330;1291;22470;-33
2022/10/26 08:27:54;;;;;;;8.20;5.60;;;;;;;;;;105275;1280;22508;-33
2022/10/26 08:30:27;;;;;;;8.30;5.90;;;;;;;;;;105338;1301;22478;-33
2022/10/26 08:33:04;;;;;;;9.20;5.90;;;;;;;;;;105313;1298;25358;-33
2022/10/26 08:35:36;;;;;;;7.30;5.30;;;;;;;;;;105360;1301;22484;-30
2022/10/26 08:38:08;;;;;;;7.30;5.90;;;;;;;;;;105268;1293;22608;-32
2022/10/26 08:40:44;;;;;;;7.40;5.90;;;;;;;;;;105314;1300;22481;-32
2022/10/26 08:43:23;;;;;;;8.40;6.20;;;;;;;;;;105313;1301;22498;-32
2022/10/26 08:46:04;;;;;;;9.70;6.00;;;;;;;;;;105570;1277;23225;-34
2022/10/26 08:48:40;;;;;;;7.80;5.80;;;;;;;;;;105251;1294;22500;-35
2022/10/26 08:51:23;;;;;;;8.20;6.00;;;;;;;;;;105321;1300;22477;-35
2022/10/26 08:54:00;;;;;;;7.90;5.40;;;;;;;;;;105339;1300;22490;-34
2022/10/26 08:56:43;;;;;;;7.90;5.70;;;;;;;;;;105253;1282;22473;-34
2022/10/26 08:59:25;;;;;;;8.40;5.50;;;;;;;;;;105270;1285;22637;-35
2022/10/26 09:02:00;;;;;;;7.90;5.50;;;;;;;;;;105292;1299;22787;-35
2022/10/26 09:04:34;;;;;;;7.90;6.00;;;;;;;;;;105243;1282;23952;-35
2022/10/26 09:07:24;;;;;;;9.20;6.10;;;;;;;;;;105302;1285;25440;-35
2022/10/26 09:10:08;;;;;;;7.70;5.60;;;;;;;;;;105264;1292;22488;-36
2022/10/26 09:12:49;;;;;;;7.50;5.40;;;;;;;;;;105245;1300;22496;-36
2022/10/26 09:15:32;;;;;;;7.50;5.70;;;;;;;;;;105255;1292;22479;-36
2022/10/26 09:18:23;;;;;;;7.60;5.90;;;;;;;;;;105289;1285;22448;-35
2022/10/26 09:21:11;;;;;;;8.90;6.20;;;;;;;;;;105222;1304;22484;-34
2022/10/26 09:24:00;;;;;;;8.00;5.80;;;;;;;;;;105332;1291;22456;-36
2022/10/26 09:26:44;;;;;;;9.90;6.20;;;;;;;;;;105302;1292;22524;-35
2022/10/26 09:29:15;;;;;;;;;;;;;;;;;;105249;1291;22726;-34
2022/10/26 09:31:53;;;;;;;8.30;5.80;;;;;;;;;;105256;1290;22622;-34
2022/10/26 09:34:35;;;;;;;7.70;6.30;;;;;;;;;;105260;1299;22554;-33
2022/10/26 09:37:20;;;;;;;8.00;5.60;;;;;;;;;;105346;1284;22463;-34
2022/10/26 09:40:05;;;;;;;7.70;5.70;;;;;;;;;;105209;1299;25246;-35
2022/10/26 09:42:45;;;;;;;9.00;5.70;;;;;;;;;;105258;1300;22493;-34
2022/10/26 09:45:24;;;;;;;8.10;6.10;;;;;;;;;;105271;1300;25236;-34
2022/10/26 09:48:01;;;;;;;7.70;5.50;;;;;;;;;;105265;1294;23986;-34
2022/10/26 09:50:42;;;;;;;7.90;5.70;;;;;;;;;;105240;1304;23869;-35
2022/10/26 09:53:14;;;;;;;8.00;6.00;;;;;;;;;;105183;1300;22526;-35
2022/10/26 09:55:51;;;;;;;8.10;5.90;;;;;;;;;;105242;1299;23982;-35
2022/10/26 09:58:30;;;;;;;8.70;5.60;;;;;;;;;;105186;1294;22491;-34
2022/10/26 10:01:02;;;;;;;8.00;6.00;;;;;;;;;;105177;1300;25242;-34
2022/10/26 10:03:35;;;;;;;7.60;5.80;;;;;;;;;;105144;1300;22534;-34
2022/10/26 10:06:22;;;;;;;7.80;5.60;;;;;;;;;;105199;1307;23793;-36
2022/10/26 10:09:11;;;;;;;7.40;5.80;;;;;;;;;;105285;1300;23849;-31
2022/10/26 10:11:53;;;;;;;7.90;5.40;;;;;;;;;;105214;1277;22478;-31
2022/10/26 10:14:33;;;;;;;8.00;5.60;;;;;;;;;;105268;1290;22488;-30
2022/10/26 10:17:09;;;;;;;8.10;5.70;;;;;;;;;;105277;1300;22485;-30
2022/10/26 10:19:41;;;;;;;7.00;5.40;;;;;;;;;;105240;1296;22525;-31
2022/10/26 10:22:21;;;;;;;9.40;5.70;;;;;;;;;;105199;1294;23861;-30
2022/10/26 10:25:01;;;;;;;8.90;5.80;;;;;;;;;;105236;1294;22495;-30
2022/10/26 10:27:34;;;;;;;8.40;5.90;;;;;;;;;;105282;1285;22488;-30
2022/10/26 10:30:28;;;;;;;7.50;5.50;;;;;;;;;;105224;1302;22474;-31
2022/10/26 10:33:12;;;;;;;7.70;5.40;;;;;;;;;;105270;1299;22614;-31
2022/10/26 10:35:52;;;;;;;8.50;5.60;;;;;;;;;;105266;1294;22988;-31
2022/10/26 10:38:24;;;;;;;7.70;5.60;;;;;;;;;;105250;1292;25358;-31
2022/10/26 10:41:02;;;;;;;7.30;5.40;;;;;;;;;;105174;1301;22478;-31
2022/10/26 10:43:34;;;;;;;7.90;5.30;;;;;;;;;;105269;1270;24027;-31
2022/10/26 10:46:07;;;;;;;7.30;5.40;;;;;;;;;;105228;1287;22548;-30
2022/10/26 10:48:48;;;;;;;8.00;5.80;;;;;;;;;;105336;1300;22952;-31
2022/10/26 10:51:26;;;;;;;6.90;5.60;;;;;;;;;;105248;1288;22606;-30
2022/10/26 10:54:03;;;;;;;7.90;5.60;;;;;;;;;;105298;1300;22500;-31
2022/10/26 10:56:43;;;;;;;11.40;6.30;;;;;;;;;;105254;1300;22491;-30
2022/10/26 10:59:39;;;;;;;7.70;5.70;;;;;;;;;;105312;1293;22810;-31
2022/10/26 11:02:53;;;;;;;7.60;5.00;;;;;;;;;;105236;1299;22525;-31
2022/10/26 11:05:30;;;;;;;;;;;;;;;;;;105326;1290;25263;-31
2022/10/26 11:08:11;;;;;;;6.20;5.00;;;;;;;;;;105310;1294;24081;-31
2022/10/26 11:10:51;;;;;;;6.80;4.90;;;;;;;;;;105304;1303;22468;-31
2022/10/26 11:13:29;;;;;;;6.90;5.20;;;;;;;;;;105218;1290;22468;-30
2022/10/26 11:16:07;;;;;;;6.70;5.20;;;;;;;;;;105302;1293;22485;-30
2022/10/26 11:18:48;;;;;;;7.90;5.30;;;;;;;;;;105319;1289;22572;-30
2022/10/26 11:21:28;;;;;;;7.00;5.30;;;;;;;;;;105285;1299;22476;-30
2022/10/26 11:24:17;;;;;;;6.50;4.90;;;;;;;;;;105272;1290;22612;-31
2022/10/26 11:26:54;;;;;;;7.70;5.00;;;;;;;;;;105354;1304;22498;-30
2022/10/26 11:29:36;;;;;;;7.00;4.80;;;;;;;;;;105284;1295;22493;-30
2022/10/26 11:32:19;;;;;;;6.70;4.70;;;;;;;;;;105255;1299;22468;-30
2022/10/26 11:35:04;;;;;;;7.20;5.20;;;;;;;;;;105366;1286;25418;-31
2022/10/26 11:37:48;;;;;;;6.90;5.00;;;;;;;;;;105288;1284;22487;-32
2022/10/26 11:40:33;;;;;;;7.40;4.80;;;;;;;;;;105305;1298;22483;-30
2022/10/26 11:43:16;;;;;;;6.50;5.00;;;;;;;;;;105310;1306;22483;-30
2022/10/26 11:46:01;;;;;;;6.60;4.80;;;;;;;;;;105281;1304;22456;-31
2022/10/26 11:48:41;;;;;;;6.80;5.00;;;;;;;;;;105253;1291;22489;-30
2022/10/26 11:51:20;;;;;;;6.30;4.70;;;;;;;;;;105279;1291;22741;-30
2022/10/26 11:53:54;;;;;;;6.40;4.80;;;;;;;;;;105206;1299;22536;-30
2022/10/26 11:56:35;;;;;;;6.60;5.10;;;;;;;;;;105220;1290;22759;-30
2022/10/26 11:59:19;;;;;;;6.70;4.30;;;;;;;;;;105256;1297;22739;-31
2022/10/26 12:01:55;;;;;;;6.00;4.40;;;;;;;;;;105219;1284;22478;-30
2022/10/26 12:04:32;;;;;;;6.90;4.70;;;;;;;;;;105211;1280;22489;-31
2022/10/26 12:07:11;;;;;;;6.50;4.50;;;;;;;;;;105219;1298;22479;-31
2022/10/26 12:09:45;;;;;;;6.40;4.50;;;;;;;;;;105234;1306;22478;-32
2022/10/26 12:12:31;;;;;;;5.90;4.50;;;;;;;;;;105231;1291;22725;-32
2022/10/26 12:15:23;;;;;;;6.60;4.80;;;;;;;;;;105218;1301;22562;-31
2022/10/26 12:18:05;;;;;;;6.40;4.60;;;;;;;;;;105234;1302;22787;-29
2022/10/26 12:21:02;;;;;;;6.00;4.40;;;;;;;;;;105222;1306;22495;-30
2022/10/26 12:23:38;;;;;;;6.30;4.50;;;;;;;;;;105183;1289;22493;-31
2022/10/26 12:26:47;;;;;;;7.50;4.70;;;;;;;;;;105250;1294;22488;-30
2022/10/26 12:29:42;;;;;;;6.40;4.30;;;;;;;;;;105156;1294;22473;-31
2022/10/26 12:32:51;;;;;;;5.80;4.10;;;;;;;;;;105232;1300;22496;-33
2022/10/26 12:35:44;;;;;;;6.40;4.50;;;;;;;;;;105088;1303;25277;-33
2022/10/26 12:38:56;;;;;;;6.90;4.90;;;;;;;;;;105209;1291;25232;-30
2022/10/26 12:41:32;;;;;;;6.20;4.00;;;;;;;;;;105228;1297;22514;-30
2022/10/26 12:44:40;;;;;;;6.60;4.40;;;;;;;;;;105242;1287;22479;-31
2022/10/26 12:47:52;;;;;;;6.90;4.60;;;;;;;;;;105219;1302;22532;-30
2022/10/26 12:50:43;;;;;;;7.40;4.30;;;;;;;;;;105226;1307;22476;-32
2022/10/26 12:53:19;;;;;;;6.80;4.60;;;;;;;;;;105290;1295;22517;-32
2022/10/26 12:56:12;;;;;;;7.30;4.50;;;;;;;;;;105388;1288;22942;-32
2022/10/26 12:59:22;;;;;;;6.80;4.80;;;;;;;;;;105247;1303;22483;-31
2022/10/26 13:02:40;;;;;;;6.20;4.40;;;;;;;;;;105244;1292;22484;-32
2022/10/26 13:05:40;;;;;;;6.50;4.70;;;;;;;;;;105181;1286;22528;-30
2022/10/26 13:08:14;;;;;;;6.20;4.40;;;;;;;;;;105224;1306;22484;-32
2022/10/26 13:11:06;;;;;;;6.80;4.30;;;;;;;;;;105266;1300;23799;-29
2022/10/26 13:13:38;;;;;;;7.20;4.40;;;;;;;;;;105228;1299;23026;-31
2022/10/26 13:16:14;;;;;;;6.30;4.40;;;;;;;;;;105205;1294;22518;-31
2022/10/26 13:18:51;;;;;;;7.40;4.40;;;;;;;;;;105265;1283;22523;-31
2022/10/26 13:21:25;;;;;;;6.50;4.30;;;;;;;;;;105281;1300;23746;-32
2022/10/26 13:24:04;;;;;;;6.90;4.30;;;;;;;;;;105296;1297;23795;-31
2022/10/26 13:27:24;;;;;;;5.90;4.40;;;;;;;;;;105187;1299;22493;-31
2022/10/26 13:30:44;;;;;;;6.60;4.20;;;;;;;;;;105236;1284;22506;-31
2022/10/26 13:33:25;;;;;;;7.00;4.30;;;;;;;;;;105210;1300;22651;-31
2022/10/26 13:36:01;;;;;;;5.70;4.00;;;;;;;;;;105231;1300;22626;-31
2022/10/26 13:38:36;;;;;;;6.60;4.10;;;;;;;;;;105271;1288;22635;-31
2022/10/26 13:41:27;;;;;;;6.00;3.90;;;;;;;;;;105274;1288;22468;-31
2022/10/26 13:44:05;;;;;;;6.00;4.20;;;;;;;;;;105264;1300;22566;-31
2022/10/26 13:46:45;;;;;;;6.00;4.60;;;;;;;;;;105290;1286;25918;-31
2022/10/26 13:49:24;;;;;;;6.00;4.20;;;;;;;;;;105358;1287;22546;-31
2022/10/26 13:51:58;;;;;;;6.20;4.00;;;;;;;;;;105344;1294;22492;-31
2022/10/26 13:54:37;;;;;;;6.10;4.00;;;;;;;;;;105346;1304;22495;-31
2022/10/26 13:57:19;;;;;;;6.60;4.40;;;;;;;;;;105296;1300;22487;-31
2022/10/26 13:59:52;;;;;;;6.00;4.20;;;;;;;;;;105361;1301;25902;-31
2022/10/26 14:02:30;;;;;;;5.90;4.30;;;;;;;;;;105361;1290;22488;-31
2022/10/26 14:05:06;;;;;;;6.50;4.20;;;;;;;;;;105336;1301;25372;-31
2022/10/26 14:07:43;;;;;;;6.40;4.30;;;;;;;;;;105337;1291;25394;-31
2022/10/26 14:10:29;;;;;;;7.00;4.40;;;;;;;;;;105341;1303;22516;-31
2022/10/26 14:13:02;;;;;;;6.40;4.20;;;;;;;;;;105357;1292;22939;-31
2022/10/26 14:15:36;;;;;;;5.60;4.00;;;;;;;;;;105308;1298;22466;-31
2022/10/26 14:18:12;;;;;;;5.90;4.00;;;;;;;;;;105340;1299;22686;-31
2022/10/26 14:20:55;;;;;;;5.90;3.90;;;;;;;;;;105336;1306;22483;-31
2022/10/26 14:23:35;;;;;;;6.10;3.90;;;;;;;;;;105366;1290;22471;-31
2022/10/26 14:26:17;;;;;;;5.60;4.00;;;;;;;;;;105341;1300;23308;-30
2022/10/26 14:28:52;;;;;;;5.40;3.90;;;;;;;;;;105406;1300;22507;-32
2022/10/26 14:31:28;;;;;;;5.60;3.70;;;;;;;;;;105351;1306;22764;-32
2022/10/26 14:34:04;;;;;;;5.80;4.20;;;;;;;;;;105364;1299;22488;-30
2022/10/26 14:36:41;;;;;;;6.50;3.80;;;;;;;;;;105293;1303;25352;-30
2022/10/26 14:39:24;;;;;;;6.40;4.10;;;;;;;;;;105121;1292;289068;-30
2022/10/26 14:41:57;;;;;;;6.40;4.10;;;;;;;;;;105376;1305;22555;-30
2022/10/26 14:44:30;;;;;;;5.80;3.80;;;;;;;;;;105337;1292;22563;-30
2022/10/26 14:47:01;;;;;;;;;;;;;;;;;;105310;1306;22460;-31
2022/10/26 14:49:33;;;;;;;6.10;3.80;;;;;;;;;;105325;1301;22460;-31
2022/10/26 14:52:11;;;;;;;5.40;3.70;;;;;;;;;;105374;1300;22465;-31
2022/10/26 14:54:58;;;;;;;6.00;3.90;;;;;;;;;;105372;1303;22637;-33
2022/10/26 14:57:37;;;;;;;5.30;3.70;;;;;;;;;;105344;1306;22507;-32
2022/10/26 15:00:22;;;;;;;5.40;3.90;;;;;;;;;;105363;1303;22493;-32
2022/10/26 15:02:58;;;;;;;6.30;4.20;;;;;;;;;;105309;1287;22483;-30
2022/10/26 15:05:36;;;;;;;6.30;4.20;;;;;;;;;;105316;1295;22514;-30
2022/10/26 15:08:43;;;;;;;6.40;4.10;;;;;;;;;;105310;1296;22492;-30
2022/10/26 15:11:16;;;;;;;5.30;3.70;;;;;;;;;;105356;1306;22479;-30
2022/10/26 15:13:48;;;;;;;5.90;3.90;;;;;;;;;;105338;1301;22481;-30
2022/10/26 15:16:26;;;;;;;5.70;3.90;;;;;;;;;;105339;1293;24258;-30
2022/10/26 15:19:06;;;;;;;5.80;3.90;;;;;;;;;;105316;1289;22490;-30
2022/10/26 15:21:45;;;;;;;6.30;4.40;;;;;;;;;;105360;1304;24239;-29
2022/10/26 15:24:35;;;;;;;5.10;3.50;;;;;;;;;;105364;1304;22527;-29
2022/10/26 15:27:18;;;;;;;5.80;3.70;;;;;;;;;;105339;1291;22425;-30
2022/10/26 15:29:51;;;;;;;;;;;;;;;;;;105359;1291;25618;-31
2022/10/26 15:32:34;;;;;;;5.50;3.90;;;;;;;;;;105188;1290;25385;-29
2022/10/26 15:35:14;;;;;;;;;;;;;;;;;;105324;1296;22451;-30
2022/10/26 15:37:48;;;;;;;5.60;3.80;;;;;;;;;;105276;1302;22496;-29